Terminal Aerodrome Forecast
Issued by NWS

Home | Current Version | Previous Version | Graphics & Text | Print | Product List | Glossary On
Versions: 1 2 3 4 5 6 7 8 9 10 11 12 13
680
FTUS43 KOAX 010520
TAFCDR
TAF
KCDR 010520Z 0106/0206 27005KT P6SM BKN100
     FM010800 25005KT P6SM FEW250
     FM011800 29008KT P6SM BKN100 BKN200
     FM012100 30007KT P6SM OVC100=

USA.gov is the U.S. government's official web portal to all federal, state and local government web resources and services.